Time;durP1;ratioP1;P1;durP2;ratioP2;P2;SDS_P1;SDS_P2;PMS_P1;PMS_P2;Temp;Humidity;BMP_temperature;BMP_pressure;BME280_temperature;BME280_humidity;BME280_pressure;Samples;Min_cycle;Max_cycle;Signal;HPM_P1;HPM_P2
2023/03/22 00:00:50;;;;;;;36.47;20.35;;;;;;;12.23;nan;100991.22;5008503;28;20164;-54
2023/03/22 00:03:15;;;;;;;34.60;19.67;;;;;;;12.22;nan;100987.72;5009312;28;20032;-54
2023/03/22 00:05:41;;;;;;;39.30;19.70;;;;;;;12.20;nan;100979.06;5004377;28;20034;-53
2023/03/22 00:08:07;;;;;;;34.80;19.70;;;;;;;12.19;nan;100977.34;5008623;28;20034;-52
2023/03/22 00:10:36;;;;;;;34.75;20.13;;;;;;;12.18;nan;100984.41;5005086;28;20029;-54
2023/03/22 00:13:02;;;;;;;35.53;20.15;;;;;;;12.18;nan;100984.41;4998211;28;20059;-53
2023/03/22 00:15:30;;;;;;;33.22;19.73;;;;;;;12.19;nan;100980.84;5005551;28;20053;-54
2023/03/22 00:17:56;;;;;;;38.20;21.60;;;;;;;12.18;nan;100968.59;5008587;28;20041;-53
2023/03/22 00:20:22;;;;;;;35.42;21.02;;;;;;;12.14;nan;100964.47;5001009;28;20147;-52
2023/03/22 00:22:49;;;;;;;38.90;20.40;;;;;;;12.13;nan;100952.22;4996277;28;20023;-55
2023/03/22 00:25:14;;;;;;;41.33;21.55;;;;;;;12.12;nan;100952.28;4994999;28;20064;-53
2023/03/22 00:27:40;;;;;;;46.83;23.33;;;;;;;12.08;nan;100954.25;4996551;28;20121;-52
2023/03/22 00:30:06;;;;;;;41.83;21.13;;;;;;;12.07;nan;100944.66;5006102;28;20022;-52
2023/03/22 00:32:36;;;;;;;41.17;22.10;;;;;;;12.07;nan;100954.38;5008204;28;20026;-55
2023/03/22 00:35:04;;;;;;;41.08;22.33;;;;;;;11.98;nan;100939.91;5007109;28;20116;-55
2023/03/22 00:37:33;;;;;;;35.45;20.40;;;;;;;11.98;nan;100955.75;5004075;28;20038;-54
2023/03/22 00:40:03;;;;;;;42.50;21.92;;;;;;;11.99;nan;100942.47;5004391;28;20045;-54
2023/03/22 00:42:29;;;;;;;38.63;22.02;;;;;;;11.96;nan;100944.44;4997960;28;20033;-52
2023/03/22 00:44:55;;;;;;;42.70;22.10;;;;;;;11.94;nan;100943.66;5008206;28;20392;-52
2023/03/22 00:47:21;;;;;;;37.88;20.65;;;;;;;11.92;nan;100949.06;5004445;28;20037;-54
2023/03/22 00:49:48;;;;;;;36.47;20.85;;;;;;;11.88;nan;100956.28;5008067;28;20045;-54
2023/03/22 00:52:13;;;;;;;38.92;21.20;;;;;;;11.89;nan;100957.97;5005730;28;20030;-52
2023/03/22 00:54:39;;;;;;;39.20;21.08;;;;;;;11.93;nan;100952.53;4995403;28;20089;-54
2023/03/22 00:57:04;;;;;;;41.92;23.00;;;;;;;11.88;nan;100943.09;5000075;28;20462;-51
2023/03/22 00:59:30;;;;;;;39.70;21.65;;;;;;;11.87;nan;100944.03;4999565;28;20038;-52
2023/03/22 01:01:57;;;;;;;42.70;21.90;;;;;;;11.87;nan;100944.03;5009900;28;20509;-52
2023/03/22 01:04:25;;;;;;;43.92;21.48;;;;;;;11.92;nan;100945.56;4994325;28;20034;-55
2023/03/22 01:06:57;;;;;;;36.88;21.02;;;;;;;11.94;nan;100933.13;5009431;28;20527;-54
2023/03/22 01:09:27;;;;;;;44.05;23.55;;;;;;;11.97;nan;100935.59;5000434;28;20144;-53
2023/03/22 01:11:55;;;;;;;40.45;21.55;;;;;;;11.98;nan;100926.72;5006868;28;20538;-52
2023/03/22 01:14:21;;;;;;;37.28;21.85;;;;;;;12.03;nan;100922.03;5004207;28;20026;-55
2023/03/22 01:16:47;;;;;;;38.45;21.42;;;;;;;12.03;nan;100922.03;5005433;28;20508;-55
2023/03/22 01:19:12;;;;;;;41.30;24.10;;;;;;;12.00;nan;100930.16;5006628;28;20123;-55
2023/03/22 01:21:37;;;;;;;38.15;21.48;;;;;;;12.01;nan;100919.50;4996548;28;21586;-55
2023/03/22 01:24:03;;;;;;;41.28;23.05;;;;;;;12.02;nan;100920.38;5006875;28;20637;-56
2023/03/22 01:26:29;;;;;;;43.40;23.58;;;;;;;12.01;nan;100923.94;5006441;28;20041;-55
2023/03/22 01:28:54;;;;;;;44.67;21.65;;;;;;;12.05;nan;100928.06;5004167;28;20032;-53
2023/03/22 01:31:20;;;;;;;41.42;21.77;;;;;;;12.04;nan;100935.16;5004803;28;20056;-52
2023/03/22 01:33:45;;;;;;;42.42;21.40;;;;;;;12.03;nan;100932.59;5007637;28;20026;-54
2023/03/22 01:36:10;;;;;;;41.78;23.40;;;;;;;12.00;nan;100938.06;4996071;28;20034;-52
2023/03/22 01:38:36;;;;;;;43.35;22.83;;;;;;;12.00;nan;100938.06;4999049;28;20034;-55
2023/03/22 01:41:01;;;;;;;44.08;23.10;;;;;;;11.97;nan;100931.16;5008689;28;20038;-54
2023/03/22 01:43:27;;;;;;;41.92;22.90;;;;;;;11.96;nan;100925.97;5005575;28;20103;-55
2023/03/22 01:45:53;;;;;;;40.28;21.83;;;;;;;11.96;nan;100921.53;5006119;28;20034;-55
2023/03/22 01:48:40;;;;;;;43.47;23.13;;;;;;;11.97;nan;100912.69;5008719;28;20033;-54
2023/03/22 01:51:10;;;;;;;43.28;24.13;;;;;;;11.97;nan;100910.03;5002209;28;20030;-54
2023/03/22 01:53:41;;;;;;;40.78;21.98;;;;;;;12.00;nan;100916.97;5001338;28;20030;-55
2023/03/22 01:56:09;;;;;;;42.58;22.38;;;;;;;11.98;nan;100903.88;5004223;28;20042;-54
2023/03/22 01:58:36;;;;;;;38.92;22.40;;;;;;;12.03;nan;100911.50;4996677;28;20064;-55
2023/03/22 02:01:04;;;;;;;41.17;21.65;;;;;;;12.05;nan;100906.97;5009830;28;20049;-52
2023/03/22 02:03:34;;;;;;;42.30;23.05;;;;;;;12.07;nan;100899.81;5006808;28;20031;-54
2023/03/22 02:06:00;;;;;;;42.97;23.17;;;;;;;12.06;nan;100900.75;4997561;28;20206;-51
2023/03/22 02:08:25;;;;;;;45.55;25.30;;;;;;;12.04;nan;100902.63;5003227;28;20034;-52
2023/03/22 02:10:51;;;;;;;43.78;25.20;;;;;;;12.02;nan;100899.28;4994525;28;20076;-53
2023/03/22 02:13:19;;;;;;;42.45;23.42;;;;;;;11.97;nan;100886.31;4999891;28;20038;-53
2023/03/22 02:16:03;;;;;;;43.30;23.67;;;;;;;11.96;nan;100881.97;4997371;28;20030;-55
2023/03/22 02:18:35;;;;;;;42.45;23.52;;;;;;;11.93;nan;100874.28;5001352;28;20029;-56
2023/03/22 02:21:22;;;;;;;41.55;23.30;;;;;;;11.89;nan;100878.03;5005453;28;20543;-53
2023/03/22 02:24:18;;;;;;;50.50;23.73;;;;;;;11.86;nan;100873.81;4996405;28;20037;-52
2023/03/22 02:27:05;;;;;;;40.95;21.85;;;;;;;11.84;nan;100870.41;5001612;28;20105;-53
2023/03/22 02:29:51;;;;;;;40.78;22.65;;;;;;;11.80;nan;100868.06;5001196;28;20033;-55
2023/03/22 02:33:00;;;;;;;41.58;22.02;;;;;;;11.72;nan;100871.16;5001247;28;20025;-55
2023/03/22 02:35:50;;;;;;;44.03;23.88;;;;;;;11.66;nan;100874.16;4991990;28;20061;-53
2023/03/22 02:38:20;;;;;;;41.33;23.00;;;;;;;11.66;nan;100871.53;4999653;28;20103;-54
2023/03/22 02:41:05;;;;;;;47.55;24.20;;;;;;;11.65;nan;100865.38;4999187;28;20515;-51
2023/03/22 02:43:45;;;;;;;41.58;22.52;;;;;;;11.63;nan;100876.97;5002417;28;20038;-50
2023/03/22 02:46:37;;;;;;;39.38;21.83;;;;;;;11.64;nan;100873.41;5000124;28;20140;-51
2023/03/22 02:49:29;;;;;;;44.77;22.17;;;;;;;11.67;nan;100868.78;4998570;28;20049;-51
2023/03/22 02:52:01;;;;;;;;;;;;;;;11.59;nan;100863.97;5007917;28;20679;-51
2023/03/22 02:55:03;;;;;;;43.85;22.75;;;;;;;11.62;nan;100854.19;5004425;28;19924;-51
2023/03/22 02:57:37;;;;;;;43.80;23.02;;;;;;;11.63;nan;100861.16;4983862;28;20046;-51
2023/03/22 03:00:10;;;;;;;44.60;21.40;;;;;;;11.62;nan;100854.19;5006254;28;20511;-54
2023/03/22 03:02:41;;;;;;;45.38;22.67;;;;;;;11.58;nan;100854.38;5003609;28;20060;-52
2023/03/22 03:05:09;;;;;;;44.10;23.90;;;;;;;11.56;nan;100850.13;5004406;28;20070;-53
2023/03/22 03:07:37;;;;;;;46.83;23.38;;;;;;;11.59;nan;100853.44;5004264;28;20029;-51
2023/03/22 03:10:04;;;;;;;49.03;23.33;;;;;;;11.62;nan;100848.91;5011745;28;20034;-52
2023/03/22 03:12:29;;;;;;;42.17;22.63;;;;;;;11.60;nan;100846.38;5006913;28;20034;-51
2023/03/22 03:14:55;;;;;;;37.40;21.95;;;;;;;11.64;nan;100847.03;5010922;28;20048;-51
2023/03/22 03:17:49;;;;;;;44.70;22.42;;;;;;;11.68;nan;100843.28;5010570;28;20046;-52
2023/03/22 03:20:36;;;;;;;41.33;22.02;;;;;;;11.66;nan;100851.28;5004602;28;20038;-53
2023/03/22 03:23:13;;;;;;;40.85;22.33;;;;;;;11.69;nan;100852.91;5005177;28;20034;-51
2023/03/22 03:25:52;;;;;;;42.85;23.08;;;;;;;11.69;nan;100855.53;5003295;28;20026;-53
2023/03/22 03:28:21;;;;;;;42.03;22.70;;;;;;;11.65;nan;100854.00;5008224;28;20022;-51
2023/03/22 03:31:00;;;;;;;41.70;23.13;;;;;;;11.63;nan;100855.88;5003154;28;20102;-52
2023/03/22 03:33:28;;;;;;;40.70;21.42;;;;;;;11.65;nan;100854.00;5004338;28;20029;-53
2023/03/22 03:35:59;;;;;;;45.58;22.90;;;;;;;11.63;nan;100856.75;5003443;28;20034;-53
2023/03/22 03:38:32;;;;;;;47.67;26.15;;;;;;;11.63;nan;100856.75;5001524;28;20029;-48
2023/03/22 03:41:12;;;;;;;39.75;23.30;;;;;;;11.65;nan;100859.28;5000156;28;20033;-54
2023/03/22 03:43:39;;;;;;;42.67;22.52;;;;;;;11.65;nan;100856.66;5010363;28;20046;-51
2023/03/22 03:46:06;;;;;;;41.30;22.25;;;;;;;11.65;nan;100861.91;5001997;28;20052;-51
2023/03/22 03:48:34;;;;;;;44.90;22.77;;;;;;;11.63;nan;100864.66;5011557;28;20144;-50
2023/03/22 03:51:01;;;;;;;43.83;21.58;;;;;;;11.61;nan;100869.16;5008077;28;20037;-52
2023/03/22 03:53:27;;;;;;;45.30;24.25;;;;;;;11.63;nan;100869.94;5006177;28;20036;-51
2023/03/22 03:55:53;;;;;;;42.97;22.67;;;;;;;11.64;nan;100862.84;5006855;28;20022;-50
2023/03/22 03:58:18;;;;;;;41.80;23.00;;;;;;;11.63;nan;100858.53;4999828;28;20040;-51
2023/03/22 04:00:45;;;;;;;45.05;23.67;;;;;;;11.59;nan;100853.44;5002727;28;20030;-51
2023/03/22 04:03:12;;;;;;;45.70;23.02;;;;;;;11.58;nan;100848.28;5006310;28;20052;-52
2023/03/22 04:05:38;;;;;;;42.35;21.88;;;;;;;11.61;nan;100841.94;5005189;28;20484;-51
2023/03/22 04:08:04;;;;;;;43.13;21.98;;;;;;;11.61;nan;100840.19;5004156;28;20088;-51
2023/03/22 04:10:30;;;;;;;48.72;25.10;;;;;;;11.63;nan;100840.94;5004845;28;20022;-51
2023/03/22 04:12:55;;;;;;;47.50;23.23;;;;;;;11.59;nan;100832.34;5011014;28;20034;-51
2023/03/22 04:15:21;;;;;;;40.78;21.92;;;;;;;11.59;nan;100840.25;5004118;28;20044;-52
2023/03/22 04:17:46;;;;;;;46.00;25.05;;;;;;;11.60;nan;100843.75;4994444;28;20182;-50
2023/03/22 04:20:12;;;;;;;41.55;22.45;;;;;;;11.59;nan;100842.06;5001957;28;20026;-51
2023/03/22 04:22:39;;;;;;;50.58;24.70;;;;;;;11.59;nan;100849.97;5008868;28;20042;-51
2023/03/22 04:25:12;;;;;;;40.97;23.23;;;;;;;11.55;nan;100845.81;4999178;28;20038;-49
2023/03/22 04:27:38;;;;;;;42.65;23.15;;;;;;;11.53;nan;100848.56;4997464;28;20034;-54
2023/03/22 04:30:09;;;;;;;38.00;21.02;;;;;;;11.54;nan;100850.25;5007140;28;20029;-51
2023/03/22 04:32:36;;;;;;;42.47;23.75;;;;;;;11.51;nan;100847.78;5004892;28;20392;-52
2023/03/22 04:35:02;;;;;;;44.80;23.77;;;;;;;11.47;nan;100851.53;5003601;28;20041;-51
2023/03/22 04:37:30;;;;;;;42.13;22.23;;;;;;;11.43;nan;100844.75;5006085;28;20080;-55
2023/03/22 04:39:56;;;;;;;43.35;21.30;;;;;;;11.41;nan;100842.22;5003694;28;20040;-51
2023/03/22 04:42:21;;;;;;;41.67;22.25;;;;;;;11.37;nan;100842.50;5000629;28;20037;-50
2023/03/22 04:44:47;;;;;;;42.28;22.70;;;;;;;11.31;nan;100851.63;4996497;28;20041;-51
2023/03/22 04:47:12;;;;;;;40.20;21.40;;;;;;;11.32;nan;100841.91;5001966;28;20089;-52
2023/03/22 04:49:38;;;;;;;47.35;24.98;;;;;;;11.32;nan;100837.50;5004937;28;20050;-51
2023/03/22 04:52:03;;;;;;;46.10;22.70;;;;;;;11.35;nan;100834.66;4996729;28;20026;-50
2023/03/22 04:54:29;;;;;;;43.20;23.70;;;;;;;11.34;nan;100835.63;5003954;28;20042;-51
2023/03/22 04:56:54;;;;;;;45.45;23.02;;;;;;;11.31;nan;100840.22;5003356;28;20027;-53
2023/03/22 04:59:20;;;;;;;45.40;25.15;;;;;;;11.28;nan;100849.16;5004501;28;20408;-51
2023/03/22 05:01:46;;;;;;;48.67;25.45;;;;;;;11.27;nan;100845.66;5001039;28;20088;-51
2023/03/22 05:04:12;;;;;;;49.88;24.48;;;;;;;11.22;nan;100842.47;4998572;28;20115;-51
2023/03/22 05:06:37;;;;;;;45.47;23.13;;;;;;;11.24;nan;100845.88;5003112;28;20196;-51
2023/03/22 05:09:03;;;;;;;40.55;21.60;;;;;;;11.29;nan;100838.53;5003754;28;20029;-52
2023/03/22 05:11:28;;;;;;;43.88;23.38;;;;;;;11.28;nan;100836.81;4993310;28;20561;-51
2023/03/22 05:13:54;;;;;;;44.75;23.92;;;;;;;11.27;nan;100835.13;5004716;28;20034;-53
2023/03/22 05:16:20;;;;;;;53.38;23.23;;;;;;;11.26;nan;100835.22;5002312;28;20444;-51
2023/03/22 05:18:46;;;;;;;41.00;21.90;;;;;;;11.23;nan;100831.00;4996023;28;20496;-51
2023/03/22 05:21:14;;;;;;;42.30;23.20;;;;;;;11.22;nan;100831.06;5004645;28;20046;-51
2023/03/22 05:23:43;;;;;;;46.63;22.55;;;;;;;11.21;nan;100830.22;5006867;28;20100;-53
2023/03/22 05:26:14;;;;;;;43.83;23.00;;;;;;;11.18;nan;100826.94;4999622;28;20026;-51
2023/03/22 05:28:39;;;;;;;42.33;23.83;;;;;;;11.18;nan;100825.16;5002170;28;20048;-51
2023/03/22 05:31:07;;;;;;;43.53;23.17;;;;;;;11.17;nan;100823.44;4992510;28;20594;-50
2023/03/22 05:33:33;;;;;;;40.42;22.05;;;;;;;11.16;nan;100821.75;5003777;28;20117;-52
2023/03/22 05:36:00;;;;;;;44.03;21.60;;;;;;;11.16;nan;100818.28;4997763;28;20038;-52
2023/03/22 05:38:25;;;;;;;44.42;23.85;;;;;;;11.17;nan;100810.28;4984206;28;20045;-54
2023/03/22 05:40:51;;;;;;;44.60;22.98;;;;;;;11.16;nan;100805.94;4995183;28;20464;-53
2023/03/22 05:43:17;;;;;;;45.45;21.85;;;;;;;11.18;nan;100813.78;5014046;28;20075;-55
2023/03/22 05:45:44;;;;;;;42.30;23.23;;;;;;;11.19;nan;100816.31;4997001;28;20168;-53
2023/03/22 05:48:10;;;;;;;42.50;23.13;;;;;;;11.20;nan;100815.38;4990901;28;20030;-49
2023/03/22 05:50:35;;;;;;;43.15;22.58;;;;;;;11.24;nan;100814.25;5007041;28;20373;-52
2023/03/22 05:53:02;;;;;;;42.30;23.25;;;;;;;11.31;nan;100820.00;4995303;28;20072;-51
2023/03/22 05:55:30;;;;;;;43.25;21.75;;;;;;;11.35;nan;100820.66;5001033;28;20040;-52
2023/03/22 05:57:57;;;;;;;47.85;23.52;;;;;;;11.37;nan;100818.78;5006024;28;20061;-50
2023/03/22 06:00:24;;;;;;;50.25;24.80;;;;;;;11.42;nan;100820.19;4992816;28;20046;-52
2023/03/22 06:02:55;;;;;;;48.00;24.90;;;;;;;11.49;nan;100810.13;4999347;28;20026;-50
2023/03/22 06:05:21;;;;;;;43.90;23.75;;;;;;;11.50;nan;100819.75;5000960;28;20579;-51
2023/03/22 06:07:46;;;;;;;48.72;22.92;;;;;;;11.53;nan;100809.03;4999837;28;20584;-51
2023/03/22 06:10:13;;;;;;;41.13;22.45;;;;;;;11.55;nan;100799.25;5006087;28;20117;-53
2023/03/22 06:12:39;;;;;;;43.25;22.58;;;;;;;11.58;nan;100806.09;5006494;28;20065;-51
2023/03/22 06:15:05;;;;;;;39.72;21.63;;;;;;;11.58;nan;100806.94;5005417;28;20101;-50
2023/03/22 06:17:31;;;;;;;41.75;21.70;;;;;;;11.61;nan;100799.78;5006146;28;20073;-51
2023/03/22 06:19:56;;;;;;;40.55;21.98;;;;;;;11.62;nan;100796.22;5006614;28;20030;-53
2023/03/22 06:22:22;;;;;;;39.63;21.33;;;;;;;11.65;nan;100804.75;5006700;28;20029;-53
2023/03/22 06:24:49;;;;;;;37.00;21.05;;;;;;;11.67;nan;100807.31;4999958;28;20036;-50
2023/03/22 06:27:17;;;;;;;35.92;19.83;;;;;;;11.70;nan;100807.16;4997687;28;20042;-52
2023/03/22 06:29:43;;;;;;;40.47;21.92;;;;;;;11.74;nan;100809.50;4999167;28;20038;-51
2023/03/22 06:32:09;;;;;;;37.10;20.35;;;;;;;11.74;nan;100800.72;4996670;28;21213;-51
2023/03/22 06:34:35;;;;;;;34.42;20.20;;;;;;;11.72;nan;100802.63;4998325;28;20120;-52
2023/03/22 06:37:00;;;;;;;38.47;20.20;;;;;;;11.75;nan;100797.16;5004122;28;21533;-53
2023/03/22 06:39:26;;;;;;;35.00;19.45;;;;;;;11.78;nan;100806.69;5006033;28;20055;-51
2023/03/22 06:41:51;;;;;;;34.53;18.83;;;;;;;11.79;nan;100806.56;5006301;28;20075;-52
2023/03/22 06:44:17;;;;;;;37.83;20.63;;;;;;;11.86;nan;100813.16;5000994;28;20032;-55
2023/03/22 06:46:43;;;;;;;37.17;20.02;;;;;;;11.88;nan;100813.88;5003584;28;20130;-51
2023/03/22 06:49:09;;;;;;;37.25;20.55;;;;;;;11.93;nan;100810.13;5007495;28;20022;-52
2023/03/22 06:51:35;;;;;;;36.25;20.08;;;;;;;11.98;nan;100813.34;5007452;28;20022;-51
2023/03/22 06:54:00;;;;;;;33.38;18.25;;;;;;;11.98;nan;100813.34;5004654;28;20033;-54
2023/03/22 06:56:26;;;;;;;38.28;19.33;;;;;;;12.01;nan;100808.75;5007673;28;20038;-54
2023/03/22 06:58:53;;;;;;;32.70;17.42;;;;;;;11.98;nan;100814.19;5003999;28;20444;-53
2023/03/22 07:01:22;;;;;;;38.42;19.48;;;;;;;12.00;nan;100809.69;5008144;28;20113;-54
2023/03/22 07:03:47;;;;;;;29.77;16.75;;;;;;;12.03;nan;100814.78;5005489;28;20088;-55
2023/03/22 07:06:12;;;;;;;32.33;17.23;;;;;;;12.08;nan;100817.13;5002540;28;20575;-57
2023/03/22 07:08:38;;;;;;;34.05;17.73;;;;;;;12.14;nan;100818.50;5001141;28;20639;-50
2023/03/22 07:11:05;;;;;;;33.60;18.75;;;;;;;12.17;nan;100819.19;5005130;28;20499;-53
2023/03/22 07:13:30;;;;;;;31.77;18.33;;;;;;;12.18;nan;100820.84;4996366;28;20031;-51
2023/03/22 07:15:58;;;;;;;36.38;17.98;;;;;;;12.22;nan;100821.53;4996203;28;20037;-53
2023/03/22 07:18:24;;;;;;;29.20;16.85;;;;;;;12.23;nan;100817.09;5008343;28;20025;-54
2023/03/22 07:20:50;;;;;;;32.25;17.17;;;;;;;12.29;nan;100816.72;4995325;28;20142;-54
2023/03/22 07:23:16;;;;;;;31.27;16.52;;;;;;;12.30;nan;100823.69;4998651;28;20030;-55
2023/03/22 07:25:43;;;;;;;32.95;17.75;;;;;;;12.30;nan;100813.13;5000800;28;20030;-55
2023/03/22 07:28:10;;;;;;;30.85;16.05;;;;;;;12.32;nan;100809.44;5007998;28;20050;-54
2023/03/22 07:30:36;;;;;;;30.08;17.13;;;;;;;12.38;nan;100810.00;5006088;28;20026;-54
2023/03/22 07:33:02;;;;;;;33.63;17.23;;;;;;;12.40;nan;100810.75;5002026;28;20033;-55
2023/03/22 07:35:29;;;;;;;34.63;18.13;;;;;;;12.41;nan;100809.78;5004611;28;20060;-54
2023/03/22 07:37:54;;;;;;;28.85;16.98;;;;;;;12.42;nan;100812.34;4999956;28;20038;-53
2023/03/22 07:40:20;;;;;;;29.75;15.57;;;;;;;12.46;nan;100811.19;4997706;28;20038;-54
2023/03/22 07:42:49;;;;;;;28.88;16.70;;;;;;;12.48;nan;100806.63;4997757;28;20030;-51
2023/03/22 07:45:16;;;;;;;28.75;15.80;;;;;;;12.50;nan;100806.56;5001789;28;20025;-53
2023/03/22 07:47:42;;;;;;;27.42;15.02;;;;;;;12.53;nan;100806.38;5004592;28;20096;-54
2023/03/22 07:50:11;;;;;;;31.65;15.65;;;;;;;12.50;nan;100804.75;5007400;28;20564;-52
2023/03/22 07:52:36;;;;;;;28.45;15.70;;;;;;;12.54;nan;100809.84;5007594;28;20037;-54
2023/03/22 07:55:03;;;;;;;23.38;14.68;;;;;;;12.64;nan;100803.00;5008782;28;20025;-56
2023/03/22 07:57:28;;;;;;;26.50;15.43;;;;;;;12.66;nan;100801.13;5006368;28;20036;-55
2023/03/22 07:59:55;;;;;;;23.02;13.50;;;;;;;12.68;nan;100801.03;5006864;28;20030;-54
2023/03/22 08:02:20;;;;;;;25.90;15.02;;;;;;;12.69;nan;100800.91;5009147;28;20492;-56
2023/03/22 08:04:47;;;;;;;24.83;13.65;;;;;;;12.64;nan;100789.81;5002993;28;20045;-53
2023/03/22 08:07:14;;;;;;;26.33;15.02;;;;;;;12.64;nan;100784.53;5004938;28;20060;-54
2023/03/22 08:09:40;;;;;;;24.05;14.70;;;;;;;12.64;nan;100781.88;5007700;28;20026;-55
2023/03/22 08:12:06;;;;;;;24.67;13.55;;;;;;;12.67;nan;100779.06;5006150;28;20034;-54
2023/03/22 08:14:31;;;;;;;24.67;13.55;;;;;;;12.70;nan;100773.56;5006054;28;20077;-53
2023/03/22 08:16:57;;;;;;;24.50;14.13;;;;;;;12.74;nan;100777.72;4999742;28;20025;-53
2023/03/22 08:19:22;;;;;;;21.63;12.90;;;;;;;12.80;nan;100771.16;5009272;28;21199;-53
2023/03/22 08:21:48;;;;;;;26.70;14.02;;;;;;;12.84;nan;100775.31;5006340;28;20531;-52
2023/03/22 08:24:13;;;;;;;24.63;13.60;;;;;;;12.89;nan;100767.91;5004903;28;20041;-52
2023/03/22 08:26:39;;;;;;;21.20;13.50;;;;;;;12.94;nan;100775.50;5005712;28;20053;-54
2023/03/22 08:29:04;;;;;;;25.20;15.48;;;;;;;12.94;nan;100760.53;5000514;28;20483;-55
2023/03/22 08:31:30;;;;;;;22.98;13.40;;;;;;;12.99;nan;100762.03;5009490;28;20088;-53
2023/03/22 08:33:56;;;;;;;22.27;13.88;;;;;;;13.03;nan;100766.97;5003090;28;20043;-52
2023/03/22 08:36:21;;;;;;;27.17;14.65;;;;;;;13.07;nan;100760.56;5008453;28;20057;-53
2023/03/22 08:38:47;;;;;;;24.85;12.93;;;;;;;13.08;nan;100761.38;5010291;28;20416;-53
2023/03/22 08:41:14;;;;;;;24.73;12.93;;;;;;;13.10;nan;100762.97;5008626;28;20068;-55
2023/03/22 08:43:40;;;;;;;21.15;13.23;;;;;;;13.13;nan;100758.41;5005844;28;20092;-55
2023/03/22 08:46:06;;;;;;;22.17;11.55;;;;;;;13.13;nan;100761.06;5013367;28;20481;-54
2023/03/22 08:48:32;;;;;;;22.83;12.32;;;;;;;13.16;nan;100753.75;5011090;28;20121;-55
2023/03/22 08:50:59;;;;;;;22.90;12.43;;;;;;;13.15;nan;100761.81;5006939;28;20116;-54
2023/03/22 08:53:25;;;;;;;20.33;12.32;;;;;;;13.19;nan;100760.66;5005328;28;20374;-53
2023/03/22 08:55:50;;;;;;;19.50;11.57;;;;;;;13.28;nan;100765.28;5005946;28;20044;-52
2023/03/22 08:58:18;;;;;;;20.08;11.73;;;;;;;13.31;nan;100761.63;5005799;28;20048;-55
2023/03/22 09:00:44;;;;;;;18.67;12.00;;;;;;;13.34;nan;100761.38;5004206;28;20507;-49
2023/03/22 09:03:09;;;;;;;19.00;11.65;;;;;;;13.39;nan;100752.19;5007322;28;20046;-53
2023/03/22 09:05:35;;;;;;;21.25;12.10;;;;;;;13.41;nan;100750.31;5004067;28;20034;-51
2023/03/22 09:08:05;;;;;;;22.42;11.23;;;;;;;13.47;nan;100750.84;5007692;28;20720;-54
2023/03/22 09:10:31;;;;;;;21.17;11.88;;;;;;;13.51;nan;100755.81;5005930;28;20040;-51
2023/03/22 09:12:56;;;;;;;20.55;10.98;;;;;;;13.53;nan;100745.97;5005365;28;20026;-55
2023/03/22 09:15:22;;;;;;;19.95;11.30;;;;;;;13.54;nan;100749.44;4999087;28;20555;-49
2023/03/22 09:17:47;;;;;;;19.23;10.77;;;;;;;13.61;nan;100747.25;5004673;28;20038;-51
2023/03/22 09:20:13;;;;;;;20.95;10.95;;;;;;;13.63;nan;100746.16;5001564;28;20031;-51
2023/03/22 09:22:38;;;;;;;21.02;11.32;;;;;;;13.66;nan;100750.38;5001100;28;20033;-51
2023/03/22 09:25:05;;;;;;;19.00;10.70;;;;;;;13.62;nan;100755.06;5000295;28;20131;-51
2023/03/22 09:27:30;;;;;;;22.38;12.35;;;;;;;13.67;nan;100745.00;5009303;28;20053;-52
2023/03/22 09:29:55;;;;;;;20.23;11.55;;;;;;;13.72;nan;100750.78;4999869;28;20018;-52
2023/03/22 09:32:21;;;;;;;22.90;11.93;;;;;;;13.78;nan;100743.38;5004046;28;20036;-51
2023/03/22 09:34:47;;;;;;;19.50;11.43;;;;;;;13.81;nan;100751.13;5003363;28;20496;-53
2023/03/22 09:37:13;;;;;;;19.88;12.05;;;;;;;13.81;nan;100743.19;5003014;28;20049;-52
2023/03/22 09:39:40;;;;;;;19.55;10.60;;;;;;;13.87;nan;100737.44;5005227;28;20030;-53
2023/03/22 09:42:26;;;;;;;20.08;12.40;;;;;;;13.97;nan;100729.69;5004864;28;20026;-51
2023/03/22 09:44:54;;;;;;;22.73;13.07;;;;;;;13.98;nan;100737.53;5004243;28;20034;-53
2023/03/22 09:47:33;;;;;;;23.77;12.43;;;;;;;14.00;nan;100732.13;4998995;28;20030;-54
2023/03/22 09:50:14;;;;;;;12.48;7.32;;;;;;;14.08;nan;100735.03;4997720;28;20040;-53
2023/03/22 09:52:42;;;;;;;20.05;11.95;;;;;;;14.05;nan;100734.41;4998490;28;20157;-49
2023/03/22 09:55:38;;;;;;;20.13;11.18;;;;;;;14.12;nan;100735.69;4999484;28;20022;-55
2023/03/22 09:58:32;;;;;;;18.90;10.82;;;;;;;14.15;nan;100735.44;4982973;28;20127;-55
2023/03/22 10:01:10;;;;;;;22.02;11.52;;;;;;;14.21;nan;100723.56;5004405;28;20022;-54
2023/03/22 10:04:01;;;;;;;23.85;12.25;;;;;;;14.30;nan;100734.31;5002484;28;20046;-55
2023/03/22 10:06:27;;;;;;;20.42;12.20;;;;;;;14.40;nan;100734.47;5008206;28;20034;-55
2023/03/22 10:08:58;;;;;;;25.33;11.57;;;;;;;14.45;nan;100732.34;5005329;28;20029;-51
2023/03/22 10:11:52;;;;;;;24.88;13.93;;;;;;;14.47;nan;100719.84;5009852;28;20096;-52
2023/03/22 10:14:36;;;;;;;18.92;11.82;;;;;;;14.48;nan;100726.81;5003032;28;20369;-52
2023/03/22 10:17:08;;;;;;;21.25;12.48;;;;;;;14.52;nan;100727.44;5001964;28;20025;-53
2023/03/22 10:19:48;;;;;;;20.60;12.07;;;;;;;14.57;nan;100727.06;5002234;28;20057;-55
2023/03/22 10:22:17;;;;;;;24.42;13.02;;;;;;;14.66;nan;100717.59;5002154;28;20027;-53
2023/03/22 10:24:46;;;;;;;18.15;11.20;;;;;;;14.69;nan;100717.41;5002309;28;20034;-53
2023/03/22 10:27:18;;;;;;;23.88;12.82;;;;;;;14.72;nan;100714.53;5010567;28;20022;-52
2023/03/22 10:30:20;;;;;;;18.65;12.00;;;;;;;14.78;nan;100706.97;5005816;28;20028;-54
2023/03/22 10:32:54;;;;;;;21.25;12.10;;;;;;;14.77;nan;100712.34;5002226;28;20109;-54
2023/03/22 10:35:20;;;;;;;20.50;10.70;;;;;;;14.81;nan;100702.41;5003977;28;20030;-56
2023/03/22 10:37:48;;;;;;;20.30;11.25;;;;;;;14.90;nan;100699.03;5004294;28;20101;-55
2023/03/22 10:40:20;;;;;;;18.20;11.23;;;;;;;14.97;nan;100694.97;5003512;28;20037;-53
2023/03/22 10:42:59;;;;;;;18.40;10.75;;;;;;;14.99;nan;100690.38;5005003;28;20116;-54
2023/03/22 10:45:26;;;;;;;24.23;12.70;;;;;;;15.02;nan;100687.47;5006571;28;20049;-54
2023/03/22 10:47:59;;;;;;;17.55;10.38;;;;;;;15.06;nan;100693.38;5007123;28;20030;-54
2023/03/22 10:50:31;;;;;;;21.38;10.95;;;;;;;15.10;nan;100689.53;5005943;28;20504;-57
2023/03/22 10:53:05;;;;;;;20.63;10.82;;;;;;;15.19;nan;100688.84;5000554;28;20037;-51
2023/03/22 10:55:30;;;;;;;19.33;11.73;;;;;;;15.22;nan;100688.56;5005588;28;20022;-54
2023/03/22 10:58:21;;;;;;;21.05;11.13;;;;;;;15.22;nan;100683.28;5002275;28;20037;-54
2023/03/22 11:00:50;;;;;;;15.98;9.45;;;;;;;15.20;nan;100679.91;5001335;28;20104;-55
2023/03/22 11:03:34;;;;;;;18.40;10.57;;;;;;;15.18;nan;100679.19;5003574;28;20571;-55
2023/03/22 11:06:17;;;;;;;23.55;11.07;;;;;;;15.23;nan;100679.66;5006664;28;20030;-53
2023/03/22 11:08:51;;;;;;;18.10;10.45;;;;;;;15.23;nan;100674.34;5005808;28;20037;-51
2023/03/22 11:11:37;;;;;;;18.00;10.13;;;;;;;15.22;nan;100667.38;5005411;28;20468;-53
2023/03/22 11:14:39;;;;;;;19.80;10.75;;;;;;;15.31;nan;100662.31;5000661;28;20036;-54
2023/03/22 11:17:05;;;;;;;20.45;11.18;;;;;;;15.37;nan;100659.16;5002712;28;20038;-53
2023/03/22 11:19:35;;;;;;;14.65;9.25;;;;;;;15.44;nan;100663.03;5008800;28;20030;-54
2023/03/22 11:22:05;;;;;;;19.35;10.80;;;;;;;15.44;nan;100652.44;5003250;28;20081;-55
2023/03/22 11:24:33;;;;;;;21.20;10.65;;;;;;;15.48;nan;100650.38;5006663;28;20121;-56
2023/03/22 11:27:01;;;;;;;19.23;10.88;;;;;;;15.52;nan;100651.81;5009029;28;20026;-55
2023/03/22 11:29:27;;;;;;;15.88;9.48;;;;;;;15.53;nan;100649.03;5009164;28;20030;-52
2023/03/22 11:31:58;;;;;;;15.90;9.95;;;;;;;15.60;nan;100651.19;5008336;28;20514;-55
2023/03/22 11:34:31;;;;;;;21.38;10.23;;;;;;;15.65;nan;100641.06;5006693;28;20065;-56
2023/03/22 11:36:59;;;;;;;20.88;10.77;;;;;;;15.72;nan;100639.59;5008034;28;20030;-54